Terminal Aerodrome Forecast
Issued by NWS

Current Version | Previous Version | Text Only | Print | Product List | Glossary On
Versions: 1 2 3 4 5 6 7 8 9 10 11 12 13 14 15 16 17 18
953
FTUS43 KJKL 281139
TAFSJS
TAF
KSJS 281139Z 2812/2912 VRB06KT P6SM VCSH SCT015 OVC025
     FM281700 22004KT 3SM SHRA BR VCTS SCT005 SCT015 OVC025CB
     FM282000 25006KT 3SM SHRA BR VCTS SCT008CB OVC015
     FM290400 00000KT 2SM BR VCTS BKN003CB OVC008
     FM290600 00000KT 2SM BR BKN005 OVC025=

USA.gov is the U.S. government's official web portal to all federal, state and local government web resources and services.